Time;durP1;ratioP1;P1;durP2;ratioP2;P2;SDS_P1;SDS_P2;PMS_P1;PMS_P2;Temp;Humidity;BMP_temperature;BMP_pressure;BME280_temperature;BME280_humidity;BME280_pressure;Samples;Min_cycle;Max_cycle;Signal;HPM_P1;HPM_P2
2021/06/24 00:02:16;;;;;;;20.40;12.43;;;;;;;14.42;91.05;100568.03;5038909;28;20049;-76
2021/06/24 00:04:42;;;;;;;18.90;12.43;;;;;;;14.32;91.60;100566.00;5039905;28;20046;-76
2021/06/24 00:07:09;;;;;;;17.70;13.32;;;;;;;14.22;91.88;100570.31;5039313;28;20119;-77
2021/06/24 00:09:36;;;;;;;21.05;13.40;;;;;;;14.21;92.42;100581.97;5040078;28;20498;-76
2021/06/24 00:12:03;;;;;;;18.20;13.20;;;;;;;14.18;92.87;100579.53;5041355;28;20049;-77
2021/06/24 00:14:30;;;;;;;17.90;13.30;;;;;;;14.09;93.14;100586.38;5041831;28;20053;-76
2021/06/24 00:16:56;;;;;;;19.35;13.73;;;;;;;14.03;93.16;100586.81;5041760;28;20559;-77
2021/06/24 00:19:23;;;;;;;19.60;12.48;;;;;;;13.99;93.35;100588.84;5036378;28;20431;-76
2021/06/24 00:21:50;;;;;;;19.77;13.25;;;;;;;13.97;94.17;100582.72;5017232;28;20057;-76
2021/06/24 00:24:17;;;;;;;17.00;13.55;;;;;;;13.83;94.53;100570.25;5017523;28;20062;-76
2021/06/24 00:26:43;;;;;;;17.50;13.60;;;;;;;13.84;94.72;100580.03;5017590;28;20053;-76
2021/06/24 00:29:10;;;;;;;17.38;13.32;;;;;;;13.81;94.51;100580.22;5032725;28;20065;-76
2021/06/24 00:31:37;;;;;;;19.98;13.70;;;;;;;13.74;94.83;100570.88;5017222;28;20065;-76
2021/06/24 00:34:04;;;;;;;18.55;13.40;;;;;;;13.68;95.42;100574.84;5015910;28;20100;-77
2021/06/24 00:36:30;;;;;;;23.33;13.63;;;;;;;13.58;95.30;100559.34;5016768;28;20108;-76
2021/06/24 00:38:57;;;;;;;23.00;13.23;;;;;;;13.57;95.72;100570.22;5016854;28;20359;-76
2021/06/24 00:41:24;;;;;;;21.42;13.60;;;;;;;13.42;95.53;100554.13;5016863;28;20466;-75
2021/06/24 00:43:50;;;;;;;21.55;13.73;;;;;;;13.48;96.17;100584.22;5016956;28;20045;-76
2021/06/24 00:46:17;;;;;;;22.83;14.23;;;;;;;13.37;95.97;100567.00;5016589;28;20050;-75
2021/06/24 00:48:44;;;;;;;18.90;13.30;;;;;;;13.43;96.07;100580.00;5032202;28;20077;-76
2021/06/24 00:51:11;;;;;;;16.98;13.65;;;;;;;13.37;96.24;100585.78;5016793;28;20057;-76
2021/06/24 00:53:37;;;;;;;18.25;13.73;;;;;;;13.31;96.44;100580.81;5015406;28;20104;-76
2021/06/24 00:56:16;;;;;;;18.65;13.77;;;;;;;13.29;96.65;100575.53;5031964;28;20058;-75
2021/06/24 00:58:43;;;;;;;20.98;14.15;;;;;;;13.30;96.95;100574.56;5016651;28;20076;-76
2021/06/24 01:01:09;;;;;;;18.63;13.73;;;;;;;13.40;97.19;100590.91;5016575;28;20096;-76
2021/06/24 01:03:36;;;;;;;16.77;13.68;;;;;;;13.44;97.28;100579.03;5016550;28;20065;-76
2021/06/24 01:06:03;;;;;;;21.30;13.48;;;;;;;13.50;96.67;100590.34;5031383;28;20195;-76
2021/06/24 01:08:30;;;;;;;19.92;14.07;;;;;;;13.56;96.86;100590.78;5016198;28;20065;-76
2021/06/24 01:10:57;;;;;;;23.20;15.20;;;;;;;13.57;96.72;100579.09;5016336;28;20204;-77
2021/06/24 01:13:23;;;;;;;18.00;13.02;;;;;;;13.62;96.70;100578.78;5015984;28;20391;-76
2021/06/24 01:15:50;;;;;;;19.13;13.75;;;;;;;13.65;96.57;100583.09;5016086;28;20444;-76
2021/06/24 01:18:17;;;;;;;21.83;13.30;;;;;;;13.68;96.23;100573.00;5016096;28;20133;-77
2021/06/24 01:20:44;;;;;;;18.52;13.35;;;;;;;13.68;96.17;100572.16;5045736;28;20346;-77
2021/06/24 01:23:11;;;;;;;18.67;14.30;;;;;;;13.67;96.53;100579.34;5035661;28;20393;-75
2021/06/24 01:25:38;;;;;;;17.75;13.23;;;;;;;13.65;96.54;100575.03;5035650;28;20053;-77
2021/06/24 01:28:07;;;;;;;16.77;12.93;;;;;;;13.76;96.27;100577.00;5035792;28;20049;-78
2021/06/24 01:30:35;;;;;;;20.10;12.80;;;;;;;13.67;96.28;100560.56;5035732;28;20664;-76
2021/06/24 01:33:07;;;;;;;18.38;13.05;;;;;;;13.64;96.62;100554.56;5035535;28;20065;-77
2021/06/24 01:35:35;;;;;;;21.63;12.77;;;;;;;13.67;96.46;100554.34;5035793;28;20087;-76
2021/06/24 01:38:07;;;;;;;18.05;13.55;;;;;;;13.71;96.70;100561.22;5035749;28;20144;-76
2021/06/24 01:40:35;;;;;;;15.85;12.43;;;;;;;13.63;96.48;100556.41;5035569;28;20386;-75
2021/06/24 01:43:03;;;;;;;16.00;13.00;;;;;;;13.60;96.38;100555.72;5035642;28;20123;-76
2021/06/24 01:45:30;;;;;;;23.08;13.18;;;;;;;13.51;97.25;100549.16;5035278;28;20103;-76
2021/06/24 01:47:57;;;;;;;17.35;13.02;;;;;;;13.49;97.11;100557.31;5035610;28;20366;-74
2021/06/24 01:50:24;;;;;;;21.27;14.48;;;;;;;13.47;96.92;100550.31;5035534;28;20053;-75
2021/06/24 01:52:51;;;;;;;19.85;14.27;;;;;;;13.37;96.89;100545.56;5035370;28;20075;-76
2021/06/24 01:55:31;;;;;;;19.60;14.95;;;;;;;13.34;97.66;100552.94;5035351;28;20045;-76
2021/06/24 01:58:02;;;;;;;20.25;14.40;;;;;;;13.28;97.35;100548.81;5034512;28;20493;-76
2021/06/24 02:00:30;;;;;;;22.48;14.35;;;;;;;13.30;97.38;100546.94;5035403;28;20053;-77
2021/06/24 02:02:58;;;;;;;20.17;14.80;;;;;;;13.22;97.75;100544.75;5035045;28;20046;-76
2021/06/24 02:05:24;;;;;;;19.90;14.88;;;;;;;13.12;98.15;100533.78;5034370;28;20782;-76
2021/06/24 02:07:51;;;;;;;21.40;15.52;;;;;;;13.08;98.16;100540.28;5034950;28;20111;-76
2021/06/24 02:10:18;;;;;;;19.08;14.00;;;;;;;13.06;98.36;100536.84;5034394;28;20045;-76
2021/06/24 02:12:45;;;;;;;23.10;14.27;;;;;;;13.00;98.52;100531.91;5035463;28;20312;-76
2021/06/24 02:15:14;;;;;;;17.73;14.77;;;;;;;12.98;98.22;100526.66;5035176;28;20053;-76
2021/06/24 02:17:42;;;;;;;30.08;14.48;;;;;;;12.97;98.36;100524.91;5035337;28;20123;-76
2021/06/24 02:20:12;;;;;;;22.38;14.88;;;;;;;12.93;98.18;100534.13;5025553;28;20054;-76
2021/06/24 02:22:39;;;;;;;;;;;;;;;12.88;98.87;100536.25;5015927;28;20510;-74
2021/06/24 02:25:07;;;;;;;18.63;13.85;;;;;;;12.89;98.65;100529.91;5015431;28;19922;-75
2021/06/24 02:27:34;;;;;;;18.73;14.40;;;;;;;12.89;98.89;100533.47;5014081;28;20428;-74
2021/06/24 02:30:01;;;;;;;15.80;13.48;;;;;;;12.88;98.74;100530.88;5015073;28;20100;-75
2021/06/24 02:32:27;;;;;;;20.88;14.20;;;;;;;12.81;98.79;100519.69;5014973;28;20348;-75
2021/06/24 02:34:55;;;;;;;18.17;14.50;;;;;;;12.79;98.70;100521.63;5015229;28;20054;-76
2021/06/24 02:37:21;;;;;;;17.73;13.75;;;;;;;12.74;98.54;100524.59;5015053;28;20054;-75
2021/06/24 02:39:48;;;;;;;19.55;14.38;;;;;;;12.75;98.37;100525.47;5015020;28;20049;-75
2021/06/24 02:42:15;;;;;;;14.85;13.35;;;;;;;12.74;98.71;100526.41;5015072;28;20355;-76
2021/06/24 02:44:42;;;;;;;16.33;13.18;;;;;;;12.76;98.35;100524.50;5013936;28;20490;-77
2021/06/24 02:47:09;;;;;;;16.52;13.88;;;;;;;12.75;98.75;100533.50;5014948;28;20427;-76
2021/06/24 02:49:36;;;;;;;19.58;13.93;;;;;;;12.74;98.98;100529.94;5030215;28;20060;-76
2021/06/24 02:52:03;;;;;;;28.83;14.13;;;;;;;12.76;98.83;100527.19;5015167;28;20060;-76
2021/06/24 02:54:30;;;;;;;16.73;13.65;;;;;;;12.68;98.66;100527.66;5014141;28;20100;-75
2021/06/24 02:56:58;;;;;;;17.73;13.38;;;;;;;12.79;99.08;100534.16;5015006;28;20058;-76
2021/06/24 02:59:26;;;;;;;19.85;13.48;;;;;;;12.77;99.14;100527.06;5014975;28;20428;-76
2021/06/24 03:01:53;;;;;;;15.63;13.10;;;;;;;12.81;98.80;100530.41;5014909;28;20057;-76
2021/06/24 03:04:22;;;;;;;18.48;12.93;;;;;;;12.83;98.77;100522.28;5013809;28;20046;-76
2021/06/24 03:06:53;;;;;;;14.85;13.45;;;;;;;12.81;98.74;100519.69;5029626;28;20436;-75
2021/06/24 03:09:20;;;;;;;15.70;12.65;;;;;;;12.93;98.69;100522.53;5016961;28;20046;-76
2021/06/24 03:11:48;;;;;;;17.60;12.52;;;;;;;13.01;98.47;100530.94;5018686;28;20104;-75
2021/06/24 03:14:15;;;;;;;20.45;13.50;;;;;;;13.01;98.90;100521.09;5018347;28;20390;-76
2021/06/24 03:16:42;;;;;;;20.27;13.25;;;;;;;13.07;98.88;100529.69;5033739;28;20395;-76
2021/06/24 03:19:09;;;;;;;19.08;13.45;;;;;;;13.10;98.74;100535.69;5019311;28;20065;-76
2021/06/24 03:21:36;;;;;;;19.52;13.60;;;;;;;13.16;98.68;100535.31;5038390;28;20097;-76
2021/06/24 03:24:03;;;;;;;22.05;13.82;;;;;;;13.11;98.49;100521.34;5020667;28;20386;-76
2021/06/24 03:26:30;;;;;;;16.60;13.02;;;;;;;13.17;98.50;100534.34;5038253;28;20156;-76
2021/06/24 03:28:57;;;;;;;15.05;12.90;;;;;;;13.16;98.79;100529.94;5038225;28;20053;-76
2021/06/24 03:31:24;;;;;;;16.73;13.30;;;;;;;13.18;98.89;100528.00;5037759;28;20057;-75
2021/06/24 03:33:51;;;;;;;17.98;13.80;;;;;;;13.22;98.76;100519.75;5037579;28;20045;-76
2021/06/24 03:36:21;;;;;;;18.90;14.13;;;;;;;13.24;99.29;100520.53;5037785;28;20084;-75
2021/06/24 03:38:49;;;;;;;22.63;13.65;;;;;;;13.29;98.70;100524.63;5037881;28;20054;-76
2021/06/24 03:41:23;;;;;;;22.25;14.40;;;;;;;13.31;98.40;100520.00;5037843;28;20103;-76
2021/06/24 03:43:50;;;;;;;19.50;13.02;;;;;;;13.26;98.97;100519.47;5037608;28;20049;-76
2021/06/24 03:46:17;;;;;;;16.35;13.05;;;;;;;13.35;98.48;100520.66;5037532;28;20513;-76
2021/06/24 03:48:43;;;;;;;21.73;13.95;;;;;;;13.31;98.77;100516.47;5036806;28;20049;-76
2021/06/24 03:51:10;;;;;;;14.60;13.10;;;;;;;13.33;98.73;100519.91;5036595;28;20083;-76
2021/06/24 03:53:37;;;;;;;18.63;13.80;;;;;;;13.27;99.08;100510.47;5037551;28;20103;-76
2021/06/24 03:56:04;;;;;;;17.77;13.90;;;;;;;13.33;99.08;100513.69;5037693;28;20057;-75
2021/06/24 03:58:30;;;;;;;17.10;14.27;;;;;;;13.29;98.98;100508.53;5037376;28;20053;-75
2021/06/24 04:00:57;;;;;;;20.30;13.85;;;;;;;13.41;98.80;100508.69;5037320;28;20139;-76
2021/06/24 04:03:25;;;;;;;22.75;13.80;;;;;;;13.46;98.53;100511.94;5037278;28;20053;-76
2021/06/24 04:05:52;;;;;;;19.10;13.88;;;;;;;13.52;98.23;100513.34;5037426;28;20348;-76
2021/06/24 04:08:19;;;;;;;22.05;13.18;;;;;;;13.50;98.23;100520.63;5036313;28;20054;-75
2021/06/24 04:11:00;;;;;;;;;;;;;;;13.50;97.95;100515.28;5037925;28;20053;-75
2021/06/24 04:13:26;;;;;;;17.38;13.30;;;;;;;13.52;98.23;100518.69;5035904;28;19979;-76
2021/06/24 04:15:53;;;;;;;17.25;12.93;;;;;;;13.51;98.57;100506.25;5037062;28;20414;-75
2021/06/24 04:18:20;;;;;;;20.50;13.65;;;;;;;13.53;98.04;100515.94;5037218;28;20049;-76
2021/06/24 04:20:46;;;;;;;21.83;14.23;;;;;;;13.55;97.73;100514.00;5022108;28;20049;-77
2021/06/24 04:23:13;;;;;;;16.35;13.30;;;;;;;13.56;97.96;100509.47;5017140;28;20053;-76
2021/06/24 04:25:40;;;;;;;20.40;12.90;;;;;;;13.52;97.84;100503.44;5017212;28;20058;-76
2021/06/24 04:28:07;;;;;;;17.30;12.73;;;;;;;13.54;98.43;100511.41;5016930;28;20089;-77
2021/06/24 04:30:34;;;;;;;18.67;12.85;;;;;;;13.61;97.59;100507.34;5016245;28;20112;-75
2021/06/24 04:33:01;;;;;;;17.05;12.20;;;;;;;13.56;97.36;100504.09;5016827;28;20447;-76
2021/06/24 04:35:27;;;;;;;15.40;12.70;;;;;;;13.56;97.04;100501.41;5015791;28;20062;-75
2021/06/24 04:37:55;;;;;;;14.77;10.90;;;;;;;13.68;97.15;100513.16;5032195;28;20099;-76
2021/06/24 04:40:22;;;;;;;20.23;12.15;;;;;;;13.64;96.25;100509.81;5016722;28;20050;-77
2021/06/24 04:42:48;;;;;;;17.40;10.95;;;;;;;13.74;96.03;100517.22;5016871;28;20061;-76
2021/06/24 04:45:15;;;;;;;19.85;10.82;;;;;;;13.69;95.39;100506.81;5016864;28;20099;-75
2021/06/24 04:47:43;;;;;;;16.10;11.00;;;;;;;13.76;94.54;100513.47;5016826;28;20100;-76
2021/06/24 04:50:11;;;;;;;22.20;11.18;;;;;;;13.79;94.88;100513.25;5016915;28;20045;-75
2021/06/24 04:52:40;;;;;;;20.35;11.13;;;;;;;13.88;94.08;100513.59;5016915;28;20053;-77
2021/06/24 04:55:07;;;;;;;16.95;10.57;;;;;;;13.81;95.14;100515.84;5031322;28;20042;-76
2021/06/24 04:57:35;;;;;;;15.77;10.52;;;;;;;13.84;94.53;100512.97;5016844;28;20104;-76
2021/06/24 05:00:05;;;;;;;20.02;11.50;;;;;;;13.79;94.60;100507.06;5016384;28;20077;-76
2021/06/24 05:02:31;;;;;;;15.77;10.52;;;;;;;13.86;93.70;100508.34;5016898;28;20061;-76
2021/06/24 05:04:58;;;;;;;22.05;11.32;;;;;;;13.92;94.52;100510.59;5016655;28;20099;-76
2021/06/24 05:07:26;;;;;;;22.30;10.98;;;;;;;13.88;94.32;100511.78;5016131;28;20066;-76
2021/06/24 05:09:52;;;;;;;19.67;11.05;;;;;;;13.91;93.74;100508.88;5016185;28;20436;-77
2021/06/24 05:12:24;;;;;;;15.00;10.75;;;;;;;13.98;93.76;100506.63;5016249;28;20137;-76
2021/06/24 05:14:52;;;;;;;20.08;10.68;;;;;;;13.98;94.14;100503.94;5015239;28;20058;-76
2021/06/24 05:17:18;;;;;;;25.35;10.82;;;;;;;13.94;93.93;100497.91;5016412;28;20054;-75
2021/06/24 05:19:45;;;;;;;22.05;10.98;;;;;;;13.96;92.95;100498.66;5021112;28;20099;-75
2021/06/24 05:22:12;;;;;;;20.05;11.57;;;;;;;14.01;93.35;100497.50;5036037;28;20386;-75
2021/06/24 05:24:39;;;;;;;13.60;10.27;;;;;;;14.08;92.52;100501.47;5034709;28;20100;-75
2021/06/24 05:27:08;;;;;;;20.58;11.18;;;;;;;13.96;93.01;100492.47;5036120;28;20419;-75
2021/06/24 05:29:34;;;;;;;17.00;10.68;;;;;;;14.04;93.26;100503.50;5034746;28;20080;-75
2021/06/24 05:32:01;;;;;;;14.00;11.05;;;;;;;14.01;93.42;100495.69;5034772;28;20049;-76
2021/06/24 05:34:28;;;;;;;15.30;10.20;;;;;;;14.18;92.31;100489.13;5035714;28;20076;-75
2021/06/24 05:36:54;;;;;;;19.27;10.15;;;;;;;14.20;92.12;100497.03;5035708;28;20053;-79
2021/06/24 05:39:21;;;;;;;16.23;10.90;;;;;;;14.11;92.31;100498.59;5029238;28;20125;-84
2021/06/24 05:41:49;;;;;;;16.77;11.43;;;;;;;14.13;92.39;100502.00;5025820;28;20049;-77
2021/06/24 05:44:15;;;;;;;21.20;9.98;;;;;;;14.22;92.23;100504.03;5024965;28;20099;-74
2021/06/24 05:46:42;;;;;;;18.63;9.70;;;;;;;14.26;92.16;100491.25;5026278;28;20388;-75
2021/06/24 05:49:09;;;;;;;16.70;10.63;;;;;;;14.23;91.97;100491.47;5023198;28;20077;-77
2021/06/24 05:51:37;;;;;;;19.10;10.90;;;;;;;14.25;91.19;100498.47;5023094;28;20049;-76
2021/06/24 05:54:04;;;;;;;15.45;10.27;;;;;;;14.24;91.41;100496.75;5026173;28;20046;-76
2021/06/24 05:56:31;;;;;;;23.50;10.45;;;;;;;14.29;91.15;100496.41;5018033;28;20046;-77
2021/06/24 05:58:58;;;;;;;14.93;9.90;;;;;;;14.36;90.50;100494.13;5025302;28;20107;-80
2021/06/24 06:01:26;;;;;;;19.60;10.40;;;;;;;14.35;90.22;100495.97;5026745;28;20096;-82
2021/06/24 06:03:53;;;;;;;22.48;10.85;;;;;;;14.28;90.53;100472.34;5022826;28;20074;-77
2021/06/24 06:06:20;;;;;;;16.63;11.02;;;;;;;14.32;91.40;100495.34;5024420;28;20049;-82
2021/06/24 06:08:48;;;;;;;18.75;10.70;;;;;;;14.34;91.58;100493.38;5041774;28;20072;-79
2021/06/24 06:11:15;;;;;;;15.63;11.32;;;;;;;14.47;91.44;100491.53;5040156;28;20124;-81
2021/06/24 06:13:42;;;;;;;17.48;11.13;;;;;;;14.59;90.88;100499.69;5025228;28;20076;-80
2021/06/24 06:16:09;;;;;;;15.57;10.55;;;;;;;14.55;90.69;100490.13;5029320;28;20053;-77
2021/06/24 06:18:35;;;;;;;20.10;12.05;;;;;;;14.65;90.24;100499.22;5043103;28;20059;-74
2021/06/24 06:21:04;;;;;;;22.05;12.13;;;;;;;14.64;90.42;100498.38;5029067;28;20049;-77
2021/06/24 06:23:31;;;;;;;21.88;13.07;;;;;;;14.70;90.55;100499.75;5014375;28;20053;-79
2021/06/24 06:25:58;;;;;;;18.58;13.32;;;;;;;14.78;90.53;100493.84;5016027;28;20467;-77
2021/06/24 06:28:25;;;;;;;24.83;17.02;;;;;;;14.94;88.96;100497.09;5016417;28;20057;-77
2021/06/24 06:30:54;;;;;;;28.13;22.35;;;;;;;14.82;88.17;100484.56;5015336;28;20050;-78
2021/06/24 06:33:21;;;;;;;30.10;23.83;;;;;;;14.82;89.04;100498.00;5030598;28;20120;-77
2021/06/24 06:35:49;;;;;;;31.73;22.05;;;;;;;14.85;88.80;100497.78;5014330;28;20046;-76
2021/06/24 06:38:17;;;;;;;26.95;19.38;;;;;;;14.84;89.34;100500.59;5015497;28;20050;-74
2021/06/24 06:40:44;;;;;;;31.73;20.80;;;;;;;14.92;89.89;100503.56;5014248;28;20050;-70
2021/06/24 06:43:12;;;;;;;35.53;23.20;;;;;;;14.99;88.98;100503.97;5016571;28;20179;-71
2021/06/24 06:45:39;;;;;;;35.88;26.25;;;;;;;14.98;88.49;100508.47;5018068;28;20108;-70
2021/06/24 06:48:06;;;;;;;32.90;25.15;;;;;;;14.86;89.13;100504.03;5018515;28;20077;-73
2021/06/24 06:50:32;;;;;;;35.88;26.08;;;;;;;14.76;89.32;100498.47;5000875;28;20058;-74
2021/06/24 06:52:59;;;;;;;36.58;25.40;;;;;;;14.89;90.08;100503.81;5017536;28;20057;-76
2021/06/24 06:55:29;;;;;;;42.40;27.00;;;;;;;14.90;89.61;100506.38;5016935;28;20045;-77
2021/06/24 06:57:57;;;;;;;39.53;28.58;;;;;;;15.04;88.97;100496.44;5020881;28;20104;-76
2021/06/24 07:00:25;;;;;;;45.28;29.58;;;;;;;15.03;89.40;100490.19;5017270;28;20046;-77
2021/06/24 07:02:52;;;;;;;41.13;28.23;;;;;;;15.22;88.18;100494.19;5040883;28;20061;-74
2021/06/24 07:05:19;;;;;;;44.45;27.75;;;;;;;15.28;87.86;100493.72;5037021;28;20053;-73
2021/06/24 07:07:45;;;;;;;41.25;29.08;;;;;;;15.37;87.29;100492.19;5037408;28;20057;-73
2021/06/24 07:10:13;;;;;;;37.80;26.38;;;;;;;15.39;87.89;100500.09;5038274;28;20439;-74
2021/06/24 07:12:40;;;;;;;41.80;28.73;;;;;;;15.44;87.69;100492.56;5037374;28;20131;-74
2021/06/24 07:15:07;;;;;;;40.53;26.98;;;;;;;15.42;88.27;100489.13;5033688;28;20049;-73
2021/06/24 07:17:34;;;;;;;38.72;26.65;;;;;;;15.39;87.70;100494.72;5018568;28;20108;-74
2021/06/24 07:20:02;;;;;;;39.65;25.35;;;;;;;15.34;87.86;100495.97;5033529;28;20414;-74
2021/06/24 07:22:28;;;;;;;48.47;26.33;;;;;;;15.43;87.48;100497.06;5018224;28;20443;-72
2021/06/24 07:24:55;;;;;;;46.03;27.73;;;;;;;15.29;88.25;100500.81;5018259;28;20050;-71
2021/06/24 07:27:22;;;;;;;37.53;28.25;;;;;;;15.32;89.10;100497.88;5017013;28;20058;-72
2021/06/24 07:29:49;;;;;;;40.75;27.55;;;;;;;15.39;87.42;100494.72;5033420;28;20100;-74
2021/06/24 07:32:16;;;;;;;43.28;29.92;;;;;;;15.30;87.80;100491.78;5018306;28;20050;-75
2021/06/24 07:34:43;;;;;;;44.40;30.02;;;;;;;15.50;87.43;100497.47;5017909;28;20049;-72
2021/06/24 07:37:09;;;;;;;36.88;28.63;;;;;;;15.60;86.79;100497.63;5016868;28;20058;-71
2021/06/24 07:39:36;;;;;;;39.70;27.90;;;;;;;15.68;87.15;100488.97;5017966;28;20435;-74
2021/06/24 07:42:03;;;;;;;41.55;28.77;;;;;;;15.84;85.96;100499.38;5018154;28;20120;-72
2021/06/24 07:44:30;;;;;;;35.72;28.88;;;;;;;15.93;86.05;100493.31;5017913;28;20101;-72
2021/06/24 07:46:57;;;;;;;42.85;29.77;;;;;;;16.01;85.58;100493.56;5017993;28;20103;-72
2021/06/24 07:49:23;;;;;;;45.65;29.80;;;;;;;16.08;85.77;100490.38;5017902;28;20107;-72
2021/06/24 07:51:50;;;;;;;38.03;28.27;;;;;;;16.12;85.55;100490.03;5028144;28;20049;-71
2021/06/24 07:54:17;;;;;;;37.63;29.27;;;;;;;16.11;85.15;100495.50;5036512;28;20049;-72
2021/06/24 07:56:43;;;;;;;41.78;28.98;;;;;;;16.15;84.80;100497.88;5036581;28;20053;-72
2021/06/24 07:59:14;;;;;;;44.55;31.60;;;;;;;16.20;85.76;100491.25;5037434;28;20057;-72
2021/06/24 08:01:41;;;;;;;39.92;30.33;;;;;;;16.29;84.06;100490.53;5037610;28;20056;-72
2021/06/24 08:04:10;;;;;;;40.17;30.63;;;;;;;16.31;83.27;100488.56;5037308;28;20431;-72
2021/06/24 08:06:37;;;;;;;49.88;30.50;;;;;;;16.26;83.62;100482.69;5037318;28;20057;-73
2021/06/24 08:09:07;;;;;;;42.70;31.27;;;;;;;16.26;84.99;100490.75;5037211;28;20053;-72
2021/06/24 08:11:33;;;;;;;38.47;30.50;;;;;;;16.17;84.52;100475.34;5036391;28;20336;-74
2021/06/24 08:14:00;;;;;;;38.55;30.48;;;;;;;16.34;84.12;100482.91;5037306;28;20386;-72
2021/06/24 08:16:28;;;;;;;46.88;31.27;;;;;;;16.33;84.49;100483.06;5036006;28;20084;-74
2021/06/24 08:18:55;;;;;;;41.20;30.63;;;;;;;16.41;84.49;100484.13;5036958;28;20085;-72
2021/06/24 08:21:21;;;;;;;49.72;32.88;;;;;;;16.42;84.70;100485.00;5036992;28;20061;-73
2021/06/24 08:23:48;;;;;;;100.18;44.75;;;;;;;16.56;84.31;100483.88;5036792;28;20084;-72
2021/06/24 08:26:15;;;;;;;38.80;30.48;;;;;;;16.36;83.54;100480.97;5037119;28;20398;-73
2021/06/24 08:28:42;;;;;;;45.83;31.23;;;;;;;16.38;84.30;100486.22;5036690;28;20388;-73
2021/06/24 08:31:09;;;;;;;62.67;38.33;;;;;;;16.36;86.71;100489.06;5035922;28;20053;-70
2021/06/24 08:33:36;;;;;;;58.33;36.88;;;;;;;16.48;86.28;100486.31;5035877;28;20060;-73
2021/06/24 08:36:05;;;;;;;39.50;30.45;;;;;;;16.47;84.51;100487.31;5036420;28;20133;-74
2021/06/24 08:38:35;;;;;;;42.78;31.88;;;;;;;16.58;84.82;100483.75;5035495;28;20450;-74
2021/06/24 08:41:03;;;;;;;41.75;31.30;;;;;;;16.55;84.69;100488.41;5036908;28;20064;-73
2021/06/24 08:43:30;;;;;;;73.28;39.08;;;;;;;16.76;85.01;100486.75;5036777;28;20453;-72
2021/06/24 08:46:01;;;;;;;44.33;32.55;;;;;;;16.84;83.34;100489.72;5036752;28;20386;-73
2021/06/24 08:48:33;;;;;;;117.85;49.30;;;;;;;16.93;85.55;100488.94;5036341;28;20064;-72
2021/06/24 08:51:01;;;;;;;49.95;32.65;;;;;;;16.91;84.33;100487.34;5036304;28;20098;-75
2021/06/24 08:53:29;;;;;;;43.58;32.40;;;;;;;16.92;83.55;100481.84;5035235;28;20045;-72
2021/06/24 08:55:56;;;;;;;45.03;31.85;;;;;;;16.85;83.21;100475.25;5036454;28;20050;-73
2021/06/24 08:58:24;;;;;;;43.67;34.33;;;;;;;16.94;84.11;100482.56;5036144;28;20045;-77
2021/06/24 09:00:53;;;;;;;46.58;33.15;;;;;;;16.89;84.91;100478.53;5035137;28;20083;-71
2021/06/24 09:03:21;;;;;;;44.10;33.70;;;;;;;17.07;82.69;100492.34;5036433;28;20061;-73
2021/06/24 09:06:01;;;;;;;43.95;33.45;;;;;;;17.14;82.22;100495.38;5036314;28;20103;-74
2021/06/24 09:08:52;;;;;;;43.25;32.15;;;;;;;17.04;83.40;100498.00;5035864;28;20107;-74
2021/06/24 09:11:24;;;;;;;47.03;33.42;;;;;;;16.96;82.89;100501.31;5034840;28;20107;-74
2021/06/24 09:14:06;;;;;;;45.35;36.53;;;;;;;16.87;84.37;100502.06;5035803;28;20054;-73
2021/06/24 09:16:35;;;;;;;44.60;34.65;;;;;;;16.72;83.84;100504.19;5035173;28;20077;-75
2021/06/24 09:19:19;;;;;;;45.40;37.00;;;;;;;16.72;84.82;100509.59;5035812;28;20059;-72
2021/06/24 09:22:08;;;;;;;54.78;37.53;;;;;;;16.63;85.50;100512.06;5035934;28;20099;-73
2021/06/24 09:24:36;;;;;;;47.15;36.20;;;;;;;16.65;84.47;100515.47;5036067;28;20053;-73
2021/06/24 09:27:29;;;;;;;47.90;36.05;;;;;;;16.58;85.04;100508.88;5036082;28;20131;-72
2021/06/24 09:29:59;;;;;;;54.97;36.58;;;;;;;16.55;86.20;100503.72;5034588;28;20053;-74
2021/06/24 09:32:42;;;;;;;43.58;36.95;;;;;;;16.65;85.65;100503.81;5034611;28;20053;-74
2021/06/24 09:35:20;;;;;;;50.63;38.78;;;;;;;16.40;87.04;100478.88;5034589;28;20053;-72
2021/06/24 09:38:03;;;;;;;46.88;38.00;;;;;;;16.41;85.90;100502.16;5035484;28;20096;-74
2021/06/24 09:40:53;;;;;;;51.25;38.85;;;;;;;16.40;86.25;100500.44;5035435;28;20060;-72
2021/06/24 09:43:25;;;;;;;48.28;37.58;;;;;;;16.43;86.93;100508.25;5034434;28;20124;-75
2021/06/24 09:46:19;;;;;;;47.22;38.20;;;;;;;16.35;86.17;100510.72;5035529;28;20099;-75
2021/06/24 09:49:00;;;;;;;49.00;36.55;;;;;;;16.35;86.63;100514.25;5035290;28;20053;-72
2021/06/24 09:51:30;;;;;;;44.90;36.75;;;;;;;16.26;87.20;100513.16;5035530;28;20046;-72
2021/06/24 09:54:13;;;;;;;45.90;36.95;;;;;;;16.34;87.16;100509.84;5035479;28;20057;-74
2021/06/24 09:56:50;;;;;;;45.30;38.35;;;;;;;16.42;87.55;100507.41;5035673;28;20049;-74
2021/06/24 09:59:18;;;;;;;48.90;37.33;;;;;;;16.60;86.12;100506.91;5035109;28;20049;-75
2021/06/24 10:01:49;;;;;;;47.10;38.50;;;;;;;16.79;85.38;100506.25;5035431;28;20111;-73
2021/06/24 10:04:21;;;;;;;51.63;38.90;;;;;;;17.08;85.02;100499.47;5037299;28;20347;-77
2021/06/24 10:06:53;;;;;;;47.40;37.03;;;;;;;17.44;83.65;100494.63;5033406;28;20056;-74
2021/06/24 10:09:21;;;;;;;46.50;36.78;;;;;;;17.52;81.86;100491.31;5035053;28;20406;-75
2021/06/24 10:11:49;;;;;;;47.10;36.10;;;;;;;17.56;80.21;100491.88;5037674;28;20045;-69
2021/06/24 10:14:16;;;;;;;46.90;36.42;;;;;;;17.65;80.07;100493.78;5036195;28;20053;-68
2021/06/24 10:16:44;;;;;;;45.05;37.75;;;;;;;17.67;80.40;100488.28;5035534;28;20072;-73
2021/06/24 10:19:15;;;;;;;44.03;37.20;;;;;;;17.59;80.07;100491.66;5033188;28;20057;-74
2021/06/24 10:21:43;;;;;;;54.15;38.60;;;;;;;17.48;81.28;100490.72;5033422;28;20057;-73
2021/06/24 10:24:12;;;;;;;48.80;37.90;;;;;;;17.41;81.96;100489.53;5033577;28;20076;-73
2021/06/24 10:26:42;;;;;;;53.20;37.97;;;;;;;17.56;80.16;100497.28;5033575;28;20045;-74
2021/06/24 10:29:18;;;;;;;53.95;38.83;;;;;;;17.46;81.43;100499.91;5030894;28;20053;-73
2021/06/24 10:31:52;;;;;;;46.72;37.53;;;;;;;17.54;80.46;100491.19;5032546;28;20354;-74
2021/06/24 10:34:20;;;;;;;48.78;38.60;;;;;;;17.71;81.53;100493.25;5032103;28;20123;-74
2021/06/24 10:37:14;;;;;;;54.35;38.70;;;;;;;17.97;80.57;100492.00;5031092;28;20074;-74
2021/06/24 10:39:42;;;;;;;48.45;36.75;;;;;;;18.04;79.20;100475.13;5026998;28;20054;-72
2021/06/24 10:42:11;;;;;;;50.17;36.15;;;;;;;18.25;78.42;100495.84;5032926;28;20143;-75
2021/06/24 10:44:54;;;;;;;47.90;36.03;;;;;;;18.18;76.28;100473.94;5033344;28;20343;-74
2021/06/24 10:47:37;;;;;;;48.90;35.35;;;;;;;18.27;77.09;100484.91;5032481;28;20045;-74
2021/06/24 10:50:36;;;;;;;41.63;32.78;;;;;;;18.14;78.50;100486.00;5031960;28;20943;-76
2021/06/24 10:53:02;;;;;;;67.47;35.03;;;;;;;18.06;77.76;100488.53;5033430;28;20386;-74
2021/06/24 10:55:42;;;;;;;48.92;35.35;;;;;;;17.91;78.64;100487.97;5034507;28;20084;-76
2021/06/24 10:58:11;;;;;;;47.80;34.85;;;;;;;17.81;78.67;100484.38;5034951;28;20046;-76
2021/06/24 11:00:48;;;;;;;51.88;35.90;;;;;;;17.73;79.64;100483.22;5034789;28;20055;-76
2021/06/24 11:03:17;;;;;;;46.47;35.10;;;;;;;17.77;79.67;100490.03;5034952;28;20049;-74
2021/06/24 11:05:46;;;;;;;54.13;36.85;;;;;;;17.79;79.31;100481.81;5033835;28;20443;-75
2021/06/24 11:08:27;;;;;;;47.63;36.42;;;;;;;17.86;79.87;100483.00;5034309;28;20061;-74
2021/06/24 11:11:03;;;;;;;51.40;36.63;;;;;;;17.83;79.28;100477.88;5033871;28;20053;-75
2021/06/24 11:13:42;;;;;;;44.80;34.03;;;;;;;17.89;79.13;100482.75;5034484;28;20057;-75
2021/06/24 11:16:09;;;;;;;48.17;35.20;;;;;;;17.91;79.24;100479.88;5033652;28;20427;-75
2021/06/24 11:18:38;;;;;;;47.88;35.17;;;;;;;17.91;79.59;100480.75;5032970;28;20103;-76